Time;durP1;ratioP1;P1;durP2;ratioP2;P2;SDS_P1;SDS_P2;PMS_P1;PMS_P2;Temp;Humidity;BMP_temperature;BMP_pressure;BME280_temperature;BME280_humidity;BME280_pressure;Samples;Min_cycle;Max_cycle;Signal;HPM_P1;HPM_P2
2022/05/30 00:01:46;;;;;;;;;2.50;1.00;;;;;-142.59;100.00;56100.38;5015757;28;49793;-73
2022/05/30 00:04:12;;;;;;;;;4.00;2.00;;;;;-142.59;100.00;56100.38;5015562;28;50046;-73
2022/05/30 00:06:38;;;;;;;;;3.00;1.50;;;;;-142.59;100.00;56100.38;4997156;28;51807;-74
2022/05/30 00:09:03;;;;;;;;;1.50;1.50;;;;;-142.59;100.00;56100.38;5015463;28;49865;-74
2022/05/30 00:11:29;;;;;;;;;1.75;1.75;;;;;-142.59;100.00;56100.38;5015600;28;49777;-73
2022/05/30 00:13:55;;;;;;;;;1.50;1.50;;;;;-142.59;100.00;56100.38;5015579;28;49560;-73
2022/05/30 00:16:23;;;;;;;;;2.00;2.00;;;;;-142.59;100.00;56100.38;5015130;28;50324;-73
2022/05/30 00:18:49;;;;;;;;;1.75;1.25;;;;;-142.59;100.00;56100.38;5015487;28;50058;-73
2022/05/30 00:21:22;;;;;;;;;1.00;1.00;;;;;-142.59;100.00;56100.38;5015031;28;49764;-73
2022/05/30 00:23:48;;;;;;;;;2.75;1.00;;;;;-142.59;100.00;56100.38;5015483;28;49824;-74
2022/05/30 00:26:15;;;;;;;;;1.00;1.00;;;;;-142.59;100.00;56100.38;5014935;28;50548;-74
2022/05/30 00:28:40;;;;;;;;;4.25;3.00;;;;;-142.59;100.00;56100.38;5015171;28;49756;-73
2022/05/30 00:31:11;;;;;;;;;1.50;1.25;;;;;-142.59;100.00;56100.38;5015215;28;49734;-75
2022/05/30 00:33:37;;;;;;;;;2.75;2.25;;;;;-142.59;100.00;56100.38;5015023;28;50067;-75
2022/05/30 00:36:02;;;;;;;;;1.50;1.50;;;;;-142.59;100.00;56100.38;5014663;28;50618;-73
2022/05/30 00:38:28;;;;;;;;;3.00;3.00;;;;;-142.59;100.00;56100.38;5015787;28;49714;-74
2022/05/30 00:40:53;;;;;;;;;2.50;2.00;;;;;-142.59;100.00;56100.38;5033992;28;49928;-74
2022/05/30 00:43:24;;;;;;;;;3.00;3.00;;;;;-142.59;100.00;56100.38;5034257;28;49875;-74
2022/05/30 00:45:51;;;;;;;;;3.00;3.00;;;;;-142.59;100.00;56100.38;5033796;28;49852;-73
2022/05/30 00:48:20;;;;;;;;;2.00;2.00;;;;;-142.59;100.00;56100.38;5033875;28;49689;-73
2022/05/30 00:50:49;;;;;;;;;4.25;3.00;;;;;-142.59;100.00;56100.38;5033686;28;49705;-74
2022/05/30 00:53:14;;;;;;;;;2.00;2.00;;;;;-142.59;100.00;56100.38;5033973;28;49790;-74
2022/05/30 00:55:41;;;;;;;;;3.25;3.00;;;;;-142.59;100.00;56100.38;5015915;28;52836;-74
2022/05/30 00:58:09;;;;;;;;;1.75;1.75;;;;;-142.59;100.00;56100.38;5033835;28;49908;-73
2022/05/30 01:00:35;;;;;;;;;3.00;3.00;;;;;-142.59;100.00;56100.38;5033888;28;49746;-74
2022/05/30 01:08:30;;;;;;;;;3.25;3.00;;;;;-142.59;100.00;56100.38;5014432;28;49963;-75
2022/05/30 01:10:56;;;;;;;;;3.00;3.00;;;;;-142.59;100.00;56100.38;5014698;28;49689;-74
2022/05/30 01:13:23;;;;;;;;;3.00;2.00;;;;;-142.59;100.00;56100.38;5014605;28;49816;-74
2022/05/30 01:15:49;;;;;;;;;5.75;4.25;;;;;-142.59;100.00;56100.38;5014343;28;49764;-75
2022/05/30 01:18:39;;;;;;;;;3.00;3.00;;;;;-142.59;100.00;56100.38;5014248;28;49802;-76
2022/05/30 01:21:38;;;;;;;;;3.00;3.00;;;;;-142.59;100.00;56100.38;5033384;28;49715;-73
2022/05/30 01:24:06;;;;;;;;;2.00;2.00;;;;;-142.59;100.00;56100.38;5033692;28;49807;-73
2022/05/30 01:27:06;;;;;;;;;2.75;2.00;;;;;-142.59;100.00;56100.38;5033031;28;49979;-73
2022/05/30 01:29:40;;;;;;;;;3.00;2.25;;;;;-142.59;100.00;56100.38;5028301;28;50026;-73
2022/05/30 01:32:05;;;;;;;;;2.00;2.00;;;;;-142.59;100.00;56100.38;5033475;28;49807;-74
2022/05/30 01:34:31;;;;;;;;;4.00;3.00;;;;;-142.59;100.00;56100.38;5033124;28;49871;-74
2022/05/30 01:36:56;;;;;;;;;3.25;3.25;;;;;-142.59;100.00;56100.38;5032571;28;50404;-74
2022/05/30 01:39:22;;;;;;;;;2.25;1.50;;;;;-142.59;100.00;56100.38;5033284;28;49907;-75
2022/05/30 01:41:47;;;;;;;;;4.00;3.00;;;;;-142.59;100.00;56100.38;5033201;28;49726;-74
2022/05/30 01:44:14;;;;;;;;;4.75;3.25;;;;;-142.59;100.00;56100.38;5033377;28;49774;-74
2022/05/30 01:46:40;;;;;;;;;3.00;2.50;;;;;-142.59;100.00;56100.38;5032948;28;50554;-73
2022/05/30 01:49:06;;;;;;;;;4.75;4.75;;;;;-142.59;100.00;56100.38;5032991;28;49850;-73
2022/05/30 01:51:32;;;;;;;;;2.75;2.75;;;;;-142.59;100.00;56100.38;5026519;28;49745;-76
2022/05/30 01:53:58;;;;;;;;;3.00;3.00;;;;;-142.59;100.00;56100.38;5033157;28;49727;-73
2022/05/30 01:56:24;;;;;;;;;2.25;2.25;;;;;-142.59;100.00;56100.38;5032732;28;50407;-75
2022/05/30 01:58:50;;;;;;;;;4.00;4.00;;;;;-142.59;100.00;56100.38;5032846;28;49690;-75
2022/05/30 02:01:26;;;;;;;;;4.25;3.25;;;;;-142.59;100.00;56100.38;5032718;28;49919;-74
2022/05/30 02:03:53;;;;;;;;;2.75;2.75;;;;;-142.59;100.00;56100.38;5033196;28;49583;-73
2022/05/30 02:06:20;;;;;;;;;5.00;3.25;;;;;-142.59;100.00;56100.38;5032274;28;49759;-74
2022/05/30 02:08:47;;;;;;;;;4.00;3.00;;;;;-142.59;100.00;56100.38;5032680;28;49808;-73
2022/05/30 02:11:13;;;;;;;;;3.00;2.75;;;;;-142.59;100.00;56100.38;5032814;28;49730;-77
2022/05/30 02:13:39;;;;;;;;;4.00;4.00;;;;;-142.59;100.00;56100.38;5032984;28;49456;-73
2022/05/30 02:18:51;;;;;;;;;5.25;3.00;;;;;-142.59;100.00;56100.38;5027569;28;50454;-74
2022/05/30 02:21:16;;;;;;;;;7.75;6.00;;;;;-142.59;100.00;56100.38;5032415;28;49746;-73
2022/05/30 02:23:42;;;;;;;;;4.75;4.75;;;;;-142.59;100.00;56100.38;5032712;28;49807;-74
2022/05/30 02:26:07;;;;;;;;;5.75;5.75;;;;;-142.59;100.00;56100.38;5032508;28;49758;-74
2022/05/30 02:28:33;;;;;;;;;8.00;5.25;;;;;-142.59;100.00;56100.38;5032635;28;49762;-74
2022/05/30 02:30:58;;;;;;;;;6.00;5.25;;;;;-142.59;100.00;56100.38;5032231;28;49720;-71
2022/05/30 02:38:52;;;;;;;;;4.75;4.75;;;;;-142.59;100.00;56100.38;5032223;28;49828;-75
2022/05/30 02:41:18;;;;;;;;;3.75;3.00;;;;;-142.59;100.00;56100.38;5034690;28;49698;-74
2022/05/30 02:43:43;;;;;;;;;6.50;5.25;;;;;-142.59;100.00;56100.38;5036127;28;49630;-73
2022/05/30 02:46:09;;;;;;;;;4.00;4.00;;;;;-142.59;100.00;56100.38;5035775;28;49752;-74
2022/05/30 02:48:34;;;;;;;;;5.00;5.00;;;;;-142.59;100.00;56100.38;5021027;28;49706;-74
2022/05/30 02:51:00;;;;;;;;;5.00;4.00;;;;;-142.59;100.00;56100.38;5016445;28;50346;-73
2022/05/30 02:53:25;;;;;;;;;4.00;4.00;;;;;-142.59;100.00;56100.38;5016882;28;49955;-74
2022/05/30 02:55:51;;;;;;;;;4.00;4.00;;;;;-142.59;100.00;56100.38;5016403;28;50531;-74
2022/05/30 02:58:16;;;;;;;;;3.50;3.50;;;;;-142.59;100.00;56100.38;5016648;28;49722;-74
2022/05/30 03:00:41;;;;;;;;;5.25;5.25;;;;;-142.59;100.00;56100.38;4998706;28;49810;-75
2022/05/30 03:03:07;;;;;;;;;5.75;4.00;;;;;-142.59;100.00;56100.38;5016688;28;49857;-73
2022/05/30 03:05:32;;;;;;;;;5.75;5.25;;;;;-142.59;100.00;56100.38;5015907;28;50367;-74
2022/05/30 03:07:59;;;;;;;;;6.00;4.00;;;;;-142.59;100.00;56100.38;5016356;28;49679;-75
2022/05/30 03:10:25;;;;;;;;;7.75;4.50;;;;;-142.59;100.00;56100.38;5016352;28;49885;-73
2022/05/30 03:12:50;;;;;;;;;7.25;5.25;;;;;-142.59;100.00;56100.38;5016583;28;49799;-74
2022/05/30 03:15:15;;;;;;;;;8.00;5.00;;;;;-142.59;100.00;56100.38;5016224;28;49738;-74
2022/05/30 03:17:41;;;;;;;;;8.00;8.00;;;;;-142.59;100.00;56100.38;5016189;28;49829;-74
2022/05/30 03:20:07;;;;;;;;;9.50;9.25;;;;;-142.59;100.00;56100.38;5016373;28;49678;-74
2022/05/30 03:22:33;;;;;;;;;7.25;5.50;;;;;-142.59;100.00;56100.38;5016184;28;49737;-74
2022/05/30 03:24:58;;;;;;;;;7.00;5.25;;;;;-142.59;100.00;56100.38;5015921;28;50020;-74
2022/05/30 03:27:23;;;;;;;;;5.25;5.25;;;;;-142.59;100.00;56100.38;5016205;28;49736;-77
2022/05/30 03:29:49;;;;;;;;;8.25;7.25;;;;;-142.59;100.00;56100.38;5016050;28;49571;-74
2022/05/30 03:32:14;;;;;;;;;6.50;6.50;;;;;-142.59;100.00;56100.38;5016351;28;49730;-74
2022/05/30 03:34:40;;;;;;;;;9.75;8.00;;;;;-142.59;100.00;56100.38;5014888;28;50673;-73
2022/05/30 03:37:05;;;;;;;;;6.25;5.25;;;;;-142.59;100.00;56100.38;5013477;28;49828;-74
2022/05/30 03:39:30;;;;;;;;;8.25;6.00;;;;;-142.59;100.00;56100.38;5015039;28;49841;-75
2022/05/30 03:41:57;;;;;;;;;6.50;6.50;;;;;-142.59;100.00;56100.38;5014951;28;49812;-74
2022/05/30 03:44:23;;;;;;;;;7.75;7.75;;;;;-142.59;100.00;56100.38;5014778;28;49820;-74
2022/05/30 03:46:48;;;;;;;;;7.25;6.00;;;;;-142.59;100.00;56100.38;5014833;28;49832;-74
2022/05/30 03:49:13;;;;;;;;;9.50;7.00;;;;;-142.59;100.00;56100.38;5014584;28;49601;-74
2022/05/30 03:51:39;;;;;;;;;8.25;8.25;;;;;-142.59;100.00;56100.38;5014229;28;49545;-76
2022/05/30 03:54:04;;;;;;;;;9.00;6.00;;;;;-142.59;100.00;56100.38;5014363;28;49876;-75
2022/05/30 03:56:29;;;;;;;;;10.00;9.25;;;;;-142.59;100.00;56100.38;5014518;28;49758;-74
2022/05/30 03:58:55;;;;;;;;;8.50;7.00;;;;;-142.59;100.00;56100.38;5014594;28;49928;-74
2022/05/30 04:01:20;;;;;;;;;6.50;6.50;;;;;-142.59;100.00;56100.38;4996848;28;50099;-75
2022/05/30 04:03:45;;;;;;;;;6.00;6.00;;;;;-142.59;100.00;56100.38;5014337;28;50459;-74
2022/05/30 04:06:11;;;;;;;;;5.00;4.75;;;;;-142.59;100.00;56100.38;5014089;28;49718;-73
2022/05/30 04:08:37;;;;;;;;;6.25;5.25;;;;;-142.59;100.00;56100.38;5014238;28;49715;-75
2022/05/30 04:11:02;;;;;;;;;6.00;4.00;;;;;-142.59;100.00;56100.38;5014490;28;49716;-74
2022/05/30 04:13:27;;;;;;;;;6.25;5.75;;;;;-142.59;100.00;56100.38;5014152;28;49678;-75
2022/05/30 04:15:53;;;;;;;;;9.25;6.25;;;;;-142.59;100.00;56100.38;5014333;28;49816;-73
2022/05/30 04:18:18;;;;;;;;;6.75;4.25;;;;;-142.59;100.00;56100.38;5014433;28;49817;-75
2022/05/30 04:20:46;;;;;;;;;5.00;4.00;;;;;-142.59;100.00;56100.38;5014157;28;49766;-74
2022/05/30 04:23:11;;;;;;;;;3.75;3.00;;;;;-142.59;100.00;56100.38;5013865;28;49885;-74
2022/05/30 04:25:37;;;;;;;;;7.75;7.75;;;;;-142.59;100.00;56100.38;5014109;28;49733;-75
2022/05/30 04:28:02;;;;;;;;;8.00;6.00;;;;;-142.59;100.00;56100.38;5014159;28;50056;-74
2022/05/30 04:30:27;;;;;;;;;3.00;3.00;;;;;-142.59;100.00;56100.38;5014176;28;49912;-74
2022/05/30 04:32:53;;;;;;;;;7.00;7.00;;;;;-142.59;100.00;56100.38;5013771;28;49745;-75
2022/05/30 04:35:19;;;;;;;;;8.75;8.75;;;;;-142.59;100.00;56100.38;4957010;28;1145699;-74
2022/05/30 04:37:46;;;;;;;;;5.25;5.25;;;;;-142.59;100.00;56100.38;5014823;28;49703;-74
2022/05/30 04:40:13;;;;;;;;;8.00;6.75;;;;;-142.59;100.00;56100.38;5021455;28;49763;-74
2022/05/30 04:42:39;;;;;;;;;5.00;3.25;;;;;-142.59;100.00;56100.38;5034062;28;50696;-73
2022/05/30 04:45:06;;;;;;;;;4.00;4.00;;;;;-142.59;100.00;56100.38;5032674;28;49731;-74
2022/05/30 04:47:36;;;;;;;;;5.75;5.75;;;;;-142.59;100.00;56100.38;5034165;28;49696;-74
2022/05/30 04:50:04;;;;;;;;;9.75;7.00;;;;;-142.59;100.00;56100.38;5034028;28;49982;-74
2022/05/30 04:52:29;;;;;;;;;6.00;6.00;;;;;-142.59;100.00;56100.38;5033390;28;50595;-74
2022/05/30 04:54:55;;;;;;;;;5.50;5.50;;;;;-142.59;100.00;56100.38;5033825;28;49737;-74
2022/05/30 04:57:20;;;;;;;;;6.00;6.00;;;;;-142.59;100.00;56100.38;5016183;28;49738;-73
2022/05/30 04:59:45;;;;;;;;;4.75;4.75;;;;;-142.59;100.00;56100.38;5034006;28;49774;-74
2022/05/30 05:02:12;;;;;;;;;7.00;6.00;;;;;-142.59;100.00;56100.38;5033176;28;50488;-74
2022/05/30 05:04:39;;;;;;;;;7.50;6.50;;;;;-142.59;100.00;56100.38;5033038;28;49804;-73
2022/05/30 05:07:05;;;;;;;;;6.00;6.00;;;;;-142.59;100.00;56100.38;5033359;28;49812;-75
2022/05/30 05:10:06;;;;;;;;;5.75;5.25;;;;;-142.59;100.00;56100.38;5033952;28;49658;-74
2022/05/30 05:12:31;;;;;;;;;7.00;6.00;;;;;-142.59;100.00;56100.38;5033193;28;50545;-75
2022/05/30 05:14:57;;;;;;;;;7.50;6.75;;;;;-142.59;100.00;56100.38;5033585;28;49898;-74
2022/05/30 05:17:22;;;;;;;;;7.50;7.50;;;;;-142.59;100.00;56100.38;5033365;28;49693;-75
2022/05/30 05:19:47;;;;;;;;;5.75;4.25;;;;;-142.59;100.00;56100.38;5033559;28;50008;-73
2022/05/30 05:22:14;;;;;;;;;3.00;3.00;;;;;-142.59;100.00;56100.38;5032913;28;50814;-75
2022/05/30 05:24:40;;;;;;;;;9.00;7.25;;;;;-142.59;100.00;56100.38;5033310;28;49790;-74
2022/05/30 05:27:06;;;;;;;;;7.50;5.25;;;;;-142.59;100.00;56100.38;5033576;28;49762;-73
2022/05/30 05:29:31;;;;;;;;;3.50;3.25;;;;;-142.59;100.00;56100.38;5033546;28;49973;-73
2022/05/30 05:31:57;;;;;;;;;8.75;7.25;;;;;-142.59;100.00;56100.38;5032988;28;49796;-75
2022/05/30 05:34:23;;;;;;;;;8.00;8.00;;;;;-142.59;100.00;56100.38;5032948;28;49777;-76
2022/05/30 05:36:49;;;;;;;;;11.50;7.75;;;;;-142.59;100.00;56100.38;5033153;28;49710;-75
2022/05/30 05:39:18;;;;;;;;;8.00;8.00;;;;;-142.59;100.00;56100.38;5032046;28;49903;-77
2022/05/30 05:41:45;;;;;;;;;14.00;9.75;;;;;-142.59;100.00;56100.38;5032919;28;50472;-72
2022/05/30 05:44:11;;;;;;;;;14.50;7.75;;;;;-142.59;100.00;56100.38;5032940;28;49796;-79
2022/05/30 05:46:37;;;;;;;;;7.50;7.00;;;;;-142.59;100.00;56100.38;5033048;28;49956;-73
2022/05/30 05:49:03;;;;;;;;;11.75;11.75;;;;;-142.59;100.00;56100.38;5033242;28;49732;-72
2022/05/30 05:51:28;;;;;;;;;7.25;6.00;;;;;-142.59;100.00;56100.38;5032770;28;51117;-73
2022/05/30 05:53:54;;;;;;;;;3.00;3.00;;;;;-142.59;100.00;56100.38;5022975;28;49757;-73
2022/05/30 05:56:29;;;;;;;;;6.00;5.00;;;;;-142.59;100.00;56100.38;5014063;28;49696;-74
2022/05/30 05:58:55;;;;;;;;;8.50;6.50;;;;;-142.59;100.00;56100.38;5014004;28;49773;-71
2022/05/30 06:01:27;;;;;;;;;10.75;8.50;;;;;-142.59;100.00;56100.38;5013652;28;49741;-78
2022/05/30 06:03:58;;;;;;;;;10.25;6.50;;;;;-142.59;100.00;56100.38;5024719;28;49760;-83
2022/05/30 06:06:26;;;;;;;;;5.00;4.25;;;;;-142.59;100.00;56100.38;5031349;28;50000;-78
2022/05/30 06:08:53;;;;;;;;;7.50;6.75;;;;;-142.59;100.00;56100.38;5031379;28;49627;-77
2022/05/30 06:11:21;;;;;;;;;4.00;4.00;;;;;-142.59;100.00;56100.38;5031183;28;51594;-79
2022/05/30 06:13:47;;;;;;;;;5.00;5.00;;;;;-142.59;100.00;56100.38;5014513;28;49767;-77
2022/05/30 06:16:21;;;;;;;;;9.25;8.50;;;;;-142.59;100.00;56100.38;5014854;28;49678;-76
2022/05/30 06:18:47;;;;;;;;;9.50;8.00;;;;;-142.59;100.00;56100.38;5015272;28;49833;-75
2022/05/30 06:21:13;;;;;;;;;9.75;8.00;;;;;-142.59;100.00;56100.38;5032429;28;50719;-71
2022/05/30 06:23:38;;;;;;;;;9.50;6.75;;;;;-142.59;100.00;56100.38;5032319;28;49759;-75
2022/05/30 06:26:08;;;;;;;;;7.00;4.75;;;;;-142.59;100.00;56100.38;5032470;28;50189;-74
2022/05/30 06:28:36;;;;;;;;;10.00;7.50;;;;;-142.59;100.00;56100.38;5032559;28;49792;-75
2022/05/30 06:31:09;;;;;;;;;4.00;4.00;;;;;-142.59;100.00;56100.38;5032341;28;50452;-75
2022/05/30 06:33:35;;;;;;;;;10.00;9.00;;;;;-142.59;100.00;56100.38;5032319;28;49851;-72
2022/05/30 06:36:08;;;;;;;;;9.00;8.00;;;;;-142.59;100.00;56100.38;5032532;28;49881;-74
2022/05/30 06:38:35;;;;;;;;;7.50;7.50;;;;;-142.59;100.00;56100.38;5032328;28;49859;-74
2022/05/30 06:41:25;;;;;;;;;12.75;9.00;;;;;-142.59;100.00;56100.38;5032325;28;49805;-74
2022/05/30 06:43:52;;;;;;;;;11.50;11.00;;;;;-142.59;100.00;56100.38;5022442;28;49837;-74
2022/05/30 06:46:18;;;;;;;;;9.75;8.00;;;;;-142.59;100.00;56100.38;5032438;28;49818;-75
2022/05/30 06:48:43;;;;;;;;;10.00;7.75;;;;;-142.59;100.00;56100.38;5032282;28;49929;-74
2022/05/30 06:51:11;;;;;;;;;9.75;8.25;;;;;-142.59;100.00;56100.38;5031993;28;49955;-78
2022/05/30 06:53:37;;;;;;;;;8.00;8.00;;;;;-142.59;100.00;56100.38;5031942;28;49860;-73
2022/05/30 06:56:17;;;;;;;;;5.00;4.50;;;;;-142.59;100.00;56100.38;5032221;28;49767;-70
2022/05/30 06:58:44;;;;;;;;;8.00;6.25;;;;;-142.59;100.00;56100.38;5032392;28;49787;-75
2022/05/30 07:01:10;;;;;;;;;4.25;4.00;;;;;-142.59;100.00;56100.38;5031930;28;49919;-74
2022/05/30 07:03:37;;;;;;;;;6.25;6.25;;;;;-142.59;100.00;56100.38;5032028;28;49799;-74
2022/05/30 07:06:08;;;;;;;;;8.25;6.00;;;;;-142.59;100.00;56100.38;5032091;28;49844;-74
2022/05/30 07:08:34;;;;;;;;;8.75;6.00;;;;;-142.59;100.00;56100.38;5032078;28;49679;-71
2022/05/30 07:11:01;;;;;;;;;8.00;8.00;;;;;-142.59;100.00;56100.38;5031970;28;49649;-71
2022/05/30 07:13:27;;;;;;;;;4.00;4.00;;;;;-142.59;100.00;56100.38;5032115;28;49776;-72
2022/05/30 07:15:52;;;;;;;;;7.50;5.50;;;;;-142.59;100.00;56100.38;5032071;28;49948;-70
2022/05/30 07:18:19;;;;;;;;;4.00;4.00;;;;;-142.59;100.00;56100.38;5032110;28;49714;-71
2022/05/30 07:20:45;;;;;;;;;8.50;6.25;;;;;-142.59;100.00;56100.38;5030557;28;49779;-71
2022/05/30 07:23:12;;;;;;;;;4.75;4.75;;;;;-142.59;100.00;56100.38;5029648;28;49587;-71
2022/05/30 07:25:39;;;;;;;;;7.25;7.25;;;;;-142.59;100.00;56100.38;5031403;28;49860;-71
2022/05/30 07:28:05;;;;;;;;;5.50;5.50;;;;;-142.59;100.00;56100.38;5033455;28;50002;-71
2022/05/30 07:30:34;;;;;;;;;6.25;6.25;;;;;-142.59;100.00;56100.38;5034084;28;50524;-70
2022/05/30 07:32:59;;;;;;;;;8.75;7.00;;;;;-142.59;100.00;56100.38;5034477;28;49672;-72
2022/05/30 07:35:25;;;;;;;;;6.50;5.50;;;;;-142.59;100.00;56100.38;5035166;28;49874;-71
2022/05/30 07:37:51;;;;;;;;;5.25;4.00;;;;;-142.59;100.00;56100.38;5022735;28;49933;-71
2022/05/30 07:40:17;;;;;;;;;3.75;3.75;;;;;-142.59;100.00;56100.38;5015877;28;49768;-71
2022/05/30 07:42:42;;;;;;;;;5.50;4.25;;;;;-142.59;100.00;56100.38;5015877;28;49746;-71
2022/05/30 07:45:10;;;;;;;;;5.50;3.00;;;;;-142.59;100.00;56100.38;5015904;28;49919;-70
2022/05/30 07:47:35;;;;;;;;;3.00;3.00;;;;;-142.59;100.00;56100.38;5016238;28;49718;-71
2022/05/30 07:50:02;;;;;;;;;4.00;4.00;;;;;-142.59;100.00;56100.38;5015579;28;50141;-71
2022/05/30 07:52:32;;;;;;;;;5.75;4.25;;;;;-142.59;100.00;56100.38;5015578;28;49832;-71
2022/05/30 07:54:58;;;;;;;;;4.00;3.00;;;;;-142.59;100.00;56100.38;5015882;28;49681;-71
2022/05/30 07:57:50;;;;;;;;;3.00;3.00;;;;;-142.59;100.00;56100.38;5015978;28;49749;-71
2022/05/30 08:00:11;;;;;;;;;3.75;3.50;;;;;-142.59;100.00;56100.38;5028841;28;50184;-71
2022/05/30 08:02:39;;;;;;;;;5.25;3.75;;;;;-142.59;100.00;56100.38;5034838;28;49699;-71
2022/05/30 08:05:06;;;;;;;;;3.50;3.50;;;;;-142.59;100.00;56100.38;5033247;28;49922;-71
2022/05/30 08:07:31;;;;;;;;;3.50;3.00;;;;;-142.59;100.00;56100.38;5034610;28;49772;-71
2022/05/30 08:09:57;;;;;;;;;2.75;2.00;;;;;-142.59;100.00;56100.38;5034442;28;49846;-71
2022/05/30 08:12:22;;;;;;;;;4.50;3.00;;;;;-142.59;100.00;56100.38;5022044;28;49691;-71
2022/05/30 08:14:47;;;;;;;;;8.25;4.75;;;;;-142.59;100.00;56100.38;5015619;28;49751;-70
2022/05/30 08:17:13;;;;;;;;;2.50;2.50;;;;;-142.59;100.00;56100.38;5015758;28;49800;-70
2022/05/30 08:19:40;;;;;;;;;1.25;1.25;;;;;-142.59;100.00;56100.38;5015266;28;50420;-71
2022/05/30 08:22:09;;;;;;;;;3.25;3.25;;;;;-142.59;100.00;56100.38;5015457;28;49687;-70
2022/05/30 08:24:39;;;;;;;;;1.00;1.00;;;;;-142.59;100.00;56100.38;5015067;28;49744;-71
2022/05/30 08:27:05;;;;;;;;;2.00;2.00;;;;;-142.59;100.00;56100.38;5015621;28;49718;-71
2022/05/30 08:29:31;;;;;;;;;3.00;3.00;;;;;-142.59;100.00;56100.38;5014881;28;49935;-71
2022/05/30 08:31:57;;;;;;;;;3.00;3.00;;;;;-142.59;100.00;56100.38;5015319;28;49955;-70
2022/05/30 08:34:22;;;;;;;;;3.75;3.75;;;;;-142.59;100.00;56100.38;5015115;28;50069;-71
2022/05/30 08:36:47;;;;;;;;;3.00;2.00;;;;;-142.59;100.00;56100.38;5015133;28;50062;-70
2022/05/30 08:42:00;;;;;;;;;3.25;3.00;;;;;-142.59;100.00;56100.38;5015132;28;49786;-71
2022/05/30 08:44:29;;;;;;;;;4.50;2.50;;;;;-142.59;100.00;56100.38;5015094;28;49661;-71
2022/05/30 08:47:23;;;;;;;;;4.00;3.00;;;;;-142.59;100.00;56100.38;5021712;28;50030;-70
2022/05/30 08:49:52;;;;;;;;;3.00;3.00;;;;;-142.59;100.00;56100.38;5030767;28;50536;-70
2022/05/30 08:52:31;;;;;;;;;2.00;2.00;;;;;-142.59;100.00;56100.38;5032448;28;49805;-71
2022/05/30 08:55:22;;;;;;;;;2.25;2.25;;;;;-142.59;100.00;56100.38;5034007;28;49719;-71
2022/05/30 08:58:01;;;;;;;;;1.00;1.00;;;;;-142.59;100.00;56100.38;5016429;28;49951;-71
2022/05/30 09:00:55;;;;;;;;;1.25;1.25;;;;;-142.59;100.00;56100.38;5033829;28;50953;-71
2022/05/30 09:04:06;;;;;;;;;2.00;2.00;;;;;-142.59;100.00;56100.38;5003735;28;49789;-70
2022/05/30 09:06:35;;;;;;;;;2.00;1.25;;;;;-142.59;100.00;56100.38;5032974;28;49986;-70
2022/05/30 09:09:29;;;;;;;;;2.75;2.75;;;;;-142.59;100.00;56100.38;5033674;28;49818;-71
2022/05/30 09:12:12;;;;;;;;;1.75;1.75;;;;;-142.59;100.00;56100.38;5006309;28;49860;-71
2022/05/30 09:14:39;;;;;;;;;4.00;2.00;;;;;-142.59;100.00;56100.38;5014514;28;49737;-71
2022/05/30 09:17:12;;;;;;;;;2.25;1.75;;;;;-142.59;100.00;56100.38;5014496;28;49796;-70
2022/05/30 09:19:39;;;;;;;;;2.00;2.00;;;;;-142.59;100.00;56100.38;5014729;28;49817;-71
2022/05/30 09:22:09;;;;;;;;;3.00;1.00;;;;;-142.59;100.00;56100.38;5014318;28;51044;-71
2022/05/30 09:24:35;;;;;;;;;0.50;0.00;;;;;-142.59;100.00;56100.38;5014209;28;49758;-71
2022/05/30 09:27:02;;;;;;;;;1.00;1.00;;;;;-142.59;100.00;56100.38;5014392;28;50509;-71
2022/05/30 09:29:36;;;;;;;;;2.50;1.75;;;;;-142.59;100.00;56100.38;5014378;28;49691;-71
2022/05/30 09:32:32;;;;;;;;;3.25;2.00;;;;;-142.59;100.00;56100.38;5014190;28;49786;-71
2022/05/30 09:35:22;;;;;;;;;2.00;1.50;;;;;-142.59;100.00;56100.38;5029640;28;49950;-70
2022/05/30 09:38:04;;;;;;;;;0.50;0.00;;;;;-142.59;100.00;56100.38;5033147;28;50055;-71
2022/05/30 09:40:42;;;;;;;;;2.50;1.00;;;;;-142.59;100.00;56100.38;5033553;28;49794;-73
2022/05/30 09:43:12;;;;;;;;;1.00;1.00;;;;;-142.59;100.00;56100.38;5033197;28;50870;-71
2022/05/30 09:45:38;;;;;;;;;2.00;1.00;;;;;-142.59;100.00;56100.38;5033125;28;49837;-71
2022/05/30 09:48:14;;;;;;;;;1.75;1.75;;;;;-142.59;100.00;56100.38;5033252;28;50016;-71
2022/05/30 09:50:53;;;;;;;;;1.75;1.25;;;;;-142.59;100.00;56100.38;5032856;28;49708;-70
2022/05/30 09:53:43;;;;;;;;;2.00;2.00;;;;;-142.59;100.00;56100.38;5032751;28;49546;-71
2022/05/30 09:56:13;;;;;;;;;2.00;2.00;;;;;-142.59;100.00;56100.38;5032859;28;49741;-71
2022/05/30 09:58:43;;;;;;;;;2.00;2.00;;;;;-142.59;100.00;56100.38;5015199;28;49827;-72
2022/05/30 10:01:08;;;;;;;;;3.00;2.00;;;;;-142.59;100.00;56100.38;5033220;28;49551;-71
2022/05/30 10:03:40;;;;;;;;;1.00;1.00;;;;;-142.59;100.00;56100.38;5032757;28;50857;-71
2022/05/30 10:06:23;;;;;;;;;1.50;0.25;;;;;-142.59;100.00;56100.38;5032912;28;49752;-71
2022/05/30 10:08:48;;;;;;;;;1.75;1.00;;;;;-142.59;100.00;56100.38;5032610;28;49765;-71
2022/05/30 10:11:32;;;;;;;;;2.00;1.00;;;;;-142.59;100.00;56100.38;5033004;28;49761;-70
2022/05/30 10:13:58;;;;;;;;;1.00;1.00;;;;;-142.59;100.00;56100.38;5032730;28;50498;-71
2022/05/30 10:16:35;;;;;;;;;1.25;1.25;;;;;-142.59;100.00;56100.38;5032604;28;49753;-71
2022/05/30 10:19:06;;;;;;;;;2.50;2.50;;;;;-142.59;100.00;56100.38;5013697;28;49853;-71
2022/05/30 10:28:15;;;;;;;;;1.00;1.00;;;;;-142.59;100.00;56100.38;5032572;28;49856;-71
2022/05/30 10:30:44;;;;;;;;;3.75;2.50;;;;;-142.59;100.00;56100.38;5008135;28;49802;-71
2022/05/30 10:33:12;;;;;;;;;2.00;1.00;;;;;-142.59;100.00;56100.38;5032764;28;49888;-71
2022/05/30 10:35:53;;;;;;;;;1.75;1.75;;;;;-142.59;100.00;56100.38;5032386;28;49794;-71
2022/05/30 10:38:37;;;;;;;;;1.00;0.50;;;;;-142.59;100.00;56100.38;5032236;28;49919;-74
2022/05/30 10:41:09;;;;;;;;;2.00;2.00;;;;;-142.59;100.00;56100.38;5032505;28;49651;-73
2022/05/30 10:43:56;;;;;;;;;1.50;1.00;;;;;-142.59;100.00;56100.38;5032616;28;49711;-71
2022/05/30 10:46:24;;;;;;;;;2.25;1.25;;;;;-142.59;100.00;56100.38;5032371;28;50792;-71
2022/05/30 10:49:08;;;;;;;;;2.00;1.00;;;;;-142.59;100.00;56100.38;5032212;28;49690;-73
2022/05/30 10:51:48;;;;;;;;;2.00;1.00;;;;;-142.59;100.00;56100.38;5032276;28;49833;-72
2022/05/30 10:54:24;;;;;;;;;1.25;1.00;;;;;-142.59;100.00;56100.38;5032028;28;49809;-72
2022/05/30 10:56:52;;;;;;;;;1.00;1.00;;;;;-142.59;100.00;56100.38;5032129;28;49740;-73
2022/05/30 10:59:26;;;;;;;;;1.00;1.00;;;;;-142.59;100.00;56100.38;5025962;28;49777;-72
2022/05/30 11:02:08;;;;;;;;;1.00;1.00;;;;;-142.59;100.00;56100.38;5016484;28;49683;-72
2022/05/30 11:04:46;;;;;;;;;1.00;1.00;;;;;-142.59;100.00;56100.38;5035915;28;49963;-72
2022/05/30 11:07:36;;;;;;;;;1.00;1.00;;;;;-142.59;100.00;56100.38;5035220;28;49729;-73
2022/05/30 11:10:20;;;;;;;;;1.25;1.25;;;;;-142.59;100.00;56100.38;5035454;28;49673;-73
2022/05/30 11:12:57;;;;;;;;;1.00;1.00;;;;;-142.59;100.00;56100.38;5035504;28;49664;-73
2022/05/30 11:15:51;;;;;;;;;2.00;2.00;;;;;-142.59;100.00;56100.38;5035722;28;49599;-73
2022/05/30 11:18:35;;;;;;;;;1.25;1.25;;;;;-142.59;100.00;56100.38;5035418;28;49802;-73
2022/05/30 11:21:29;;;;;;;;;3.00;2.00;;;;;-142.59;100.00;56100.38;5035613;28;49782;-73
2022/05/30 11:23:55;;;;;;;;;3.00;3.00;;;;;-142.59;100.00;56100.38;5020796;28;49905;-72
2022/05/30 11:26:32;;;;;;;;;1.00;1.00;;;;;-142.59;100.00;56100.38;5036145;28;49774;-72
2022/05/30 11:29:08;;;;;;;;;2.00;2.00;;;;;-142.59;100.00;56100.38;5017429;28;52877;-71
2022/05/30 11:31:53;;;;;;;;;0.00;0.00;;;;;-142.59;100.00;56100.38;5035421;28;49716;-71
2022/05/30 11:34:43;;;;;;;;;0.50;0.50;;;;;-142.59;100.00;56100.38;5035022;28;49918;-75
2022/05/30 11:37:41;;;;;;;;;1.25;1.25;;;;;-142.59;100.00;56100.38;5035056;28;49969;-78
2022/05/30 11:40:34;;;;;;;;;2.00;2.00;;;;;-142.59;100.00;56100.38;5034819;28;49830;-78
2022/05/30 11:43:24;;;;;;;;;2.00;2.00;;;;;-142.59;100.00;56100.38;5035146;28;49500;-77
2022/05/30 11:46:05;;;;;;;;;1.50;1.50;;;;;-142.59;100.00;56100.38;5035209;28;49849;-78